createdAt,value
2023-01-09T00:02:31.247Z,98938.41
2023-01-09T00:05:20.959Z,98935.72
2023-01-09T00:07:55.146Z,98930.31
2023-01-09T00:10:26.378Z,98919.06
2023-01-09T00:12:57.672Z,98916.06
2023-01-09T00:15:31.009Z,98904.38
2023-01-09T00:18:03.272Z,98902.66
2023-01-09T00:20:36.917Z,98903.69
2023-01-09T00:23:21.059Z,98905.22
2023-01-09T00:26:26.066Z,98903.19
2023-01-09T00:29:27.710Z,98894.56
2023-01-09T00:32:15.585Z,98897.88
2023-01-09T00:35:09.522Z,98892.69
2023-01-09T00:41:18.124Z,98887.56
2023-01-09T00:43:54.280Z,98893.63
2023-01-09T00:46:48.095Z,98893.63
2023-01-09T00:49:38.071Z,98885.66
2023-01-09T00:52:39.102Z,98882.22
2023-01-09T00:55:23.468Z,98877.97
2023-01-09T00:58:20.357Z,98900.28
2023-01-09T01:00:48.745Z,98889.44
2023-01-09T01:03:51.980Z,98886.53
2023-01-09T01:06:57.318Z,98891.88
2023-01-09T01:09:30.664Z,98888.72
2023-01-09T01:12:02.420Z,98896.38
2023-01-09T01:14:30.228Z,98896.50
2023-01-09T01:17:06.974Z,98892.84
2023-01-09T01:19:40.212Z,98897.88
2023-01-09T01:22:11.066Z,98903.97
2023-01-09T01:24:41.697Z,98899.91
2023-01-09T01:27:14.348Z,98905.91
2023-01-09T01:29:44.466Z,98906.94
2023-01-09T01:32:14.412Z,98904.56
2023-01-09T01:34:46.356Z,98902.97
2023-01-09T01:37:17.424Z,98901.16
2023-01-09T01:39:49.928Z,98911.13
2023-01-09T01:42:20.602Z,98906.63
2023-01-09T01:45:08.472Z,98902.44
2023-01-09T01:47:49.233Z,98901.19
2023-01-09T01:50:20.078Z,98916.19
2023-01-09T01:52:51.783Z,98911.88
2023-01-09T01:55:22.337Z,98918.25
2023-01-09T01:57:51.072Z,98926.56
2023-01-09T02:00:28.454Z,98917.47
2023-01-09T02:02:55.725Z,98928.03
2023-01-09T02:05:28.482Z,98925.16
2023-01-09T02:08:04.934Z,98921.91
2023-01-09T02:10:32.688Z,98915.13
2023-01-09T02:15:46.774Z,98911.38
2023-01-09T02:18:16.336Z,98912.59
2023-01-09T02:20:57.705Z,98916.56
2023-01-09T02:23:47.111Z,98906.66
2023-01-09T02:26:35.117Z,98906.59
2023-01-09T02:29:04.964Z,98912.47
2023-01-09T02:31:38.843Z,98920.19
2023-01-09T02:34:24.806Z,98909.16
2023-01-09T02:37:13.803Z,98917.97
2023-01-09T02:39:44.197Z,98921.91
2023-01-09T02:42:16.538Z,98929.28
2023-01-09T02:44:49.742Z,98939.63
2023-01-09T02:47:19.625Z,98939.25
2023-01-09T02:49:53.039Z,98942.16
2023-01-09T02:52:50.033Z,98946.19
2023-01-09T02:55:45.181Z,98959.06
2023-01-09T03:01:05.574Z,98963.19
2023-01-09T03:04:09.127Z,98952.25
2023-01-09T03:06:45.372Z,98968.31
2023-01-09T03:09:15.312Z,98969.91
2023-01-09T03:11:47.145Z,98976.78
2023-01-09T03:14:32.569Z,98975.47
2023-01-09T03:17:03.513Z,98977.34
2023-01-09T03:19:44.188Z,98980.03
2023-01-09T03:22:19.023Z,98989.13
2023-01-09T03:24:48.700Z,98986.47
2023-01-09T03:27:33.259Z,99003.34
2023-01-09T03:30:01.351Z,98997.22
2023-01-09T03:32:29.031Z,99002.56
2023-01-09T03:35:07.724Z,99010.53
2023-01-09T03:37:41.744Z,99012.91
2023-01-09T03:40:14.346Z,99019.06
2023-01-09T03:42:54.355Z,99015.31
2023-01-09T03:45:21.746Z,99019.88
2023-01-09T03:47:48.946Z,99022.25
2023-01-09T03:50:18.923Z,99030.56
2023-01-09T03:52:50.274Z,99034.53
2023-01-09T03:55:21.278Z,99039.66
2023-01-09T03:57:56.418Z,99052.50
2023-01-09T04:00:28.978Z,99061.34
2023-01-09T04:03:04.103Z,99064.03
2023-01-09T04:05:36.051Z,99081.22
2023-01-09T04:11:00.769Z,99105.28
2023-01-09T04:13:37.232Z,99105.81
2023-01-09T04:16:35.956Z,99115.69
2023-01-09T04:19:06.629Z,99120.25
2023-01-09T04:21:39.584Z,99131.72
2023-01-09T04:24:11.974Z,99138.44
2023-01-09T04:27:03.772Z,99150.22
2023-01-09T04:29:40.021Z,99159.84
2023-01-09T04:34:53.628Z,99171.19
2023-01-09T04:37:21.111Z,99175.44
2023-01-09T04:39:57.371Z,99177.00
2023-01-09T04:42:34.168Z,99179.69
2023-01-09T04:45:01.670Z,99177.59
2023-01-09T04:47:31.286Z,99180.78
2023-01-09T04:50:01.891Z,99180.25
2023-01-09T04:52:29.168Z,99182.13
2023-01-09T04:54:58.755Z,99189.06
2023-01-09T04:57:34.639Z,99192.25
2023-01-09T05:00:05.276Z,99194.41
2023-01-09T05:02:38.263Z,99207.28
2023-01-09T05:05:06.509Z,99211.09
2023-01-09T05:07:45.534Z,99211.31
2023-01-09T05:10:29.669Z,99222.59
2023-01-09T05:12:57.911Z,99218.34
2023-01-09T05:15:28.500Z,99226.97
2023-01-09T05:18:13.366Z,99237.13
2023-01-09T05:20:43.716Z,99252.13
2023-01-09T05:23:13.907Z,99248.38
2023-01-09T05:25:44.929Z,99246.19
2023-01-09T05:28:20.664Z,99257.38
2023-01-09T05:30:50.459Z,99257.88
2023-01-09T05:33:20.202Z,99257.69
2023-01-09T05:35:49.097Z,99258.56
2023-01-09T05:38:21.172Z,99257.53
2023-01-09T05:40:48.372Z,99258.41
2023-01-09T05:43:20.160Z,99266.75
2023-01-09T05:48:49.550Z,99274.84
2023-01-09T05:54:08.299Z,99281.28
2023-01-09T05:56:35.304Z,99292.47
2023-01-09T06:02:01.426Z,99316.44
2023-01-09T06:04:37.674Z,99324.97
2023-01-09T06:07:07.567Z,99328.63
2023-01-09T06:10:06.542Z,99332.34
2023-01-09T06:12:38.449Z,99321.66
2023-01-09T06:15:10.205Z,99317.38
2023-01-09T06:17:37.251Z,99327.53
2023-01-09T06:20:12.259Z,99325.16
2023-01-09T06:22:42.000Z,99334.50
2023-01-09T06:25:12.248Z,99336.59
2023-01-09T06:27:39.340Z,99343.31
2023-01-09T06:30:06.741Z,99341.41
2023-01-09T06:32:36.652Z,99340.91
2023-01-09T06:35:26.759Z,99347.59
2023-01-09T06:37:59.835Z,99346.75
2023-01-09T06:40:31.576Z,99358.53
2023-01-09T06:42:58.531Z,99357.75
2023-01-09T06:45:50.763Z,99351.84
2023-01-09T06:48:35.974Z,99355.31
2023-01-09T06:51:30.117Z,99358.50
2023-01-09T06:53:59.190Z,99350.00
2023-01-09T06:56:26.591Z,99352.94
2023-01-09T06:58:59.910Z,99353.19
2023-01-09T07:01:30.112Z,99360.69
2023-01-09T07:03:57.572Z,99365.00
2023-01-09T07:06:27.815Z,99360.22
2023-01-09T07:09:19.529Z,99362.88
2023-01-09T07:11:50.604Z,99355.13
2023-01-09T07:14:26.698Z,99357.28
2023-01-09T07:16:56.991Z,99355.13
2023-01-09T07:19:27.670Z,99358.59
2023-01-09T07:22:01.532Z,99360.75
2023-01-09T07:24:38.131Z,99362.59
2023-01-09T07:27:08.152Z,99356.44
2023-01-09T07:29:45.263Z,99361.81
2023-01-09T07:32:15.427Z,99370.91
2023-01-09T07:34:52.844Z,99362.63
2023-01-09T07:37:33.036Z,99372.75
2023-01-09T07:40:08.111Z,99368.22
2023-01-09T07:43:06.777Z,99375.16
2023-01-09T07:45:54.871Z,99378.91
2023-01-09T07:48:29.883Z,99384.25
2023-01-09T07:51:03.888Z,99385.84
2023-01-09T07:53:54.838Z,99390.13
2023-01-09T07:56:24.613Z,99394.41
2023-01-09T07:59:36.860Z,99398.69
2023-01-09T08:02:09.908Z,99400.31
2023-01-09T08:04:46.763Z,99393.88
2023-01-09T08:08:09.761Z,99397.09
2023-01-09T08:10:42.245Z,99393.63
2023-01-09T08:13:18.682Z,99399.75
2023-01-09T08:15:55.136Z,99402.41
2023-01-09T08:18:27.047Z,99401.06
2023-01-09T08:20:54.395Z,99405.63
2023-01-09T08:23:24.249Z,99401.88
2023-01-09T08:25:52.544Z,99405.88
2023-01-09T08:28:27.936Z,99410.13
2023-01-09T08:30:55.054Z,99406.63
2023-01-09T08:33:25.052Z,99407.19
2023-01-09T08:35:54.321Z,99415.69
2023-01-09T08:38:33.117Z,99408.13
2023-01-09T08:41:22.729Z,99403.09
2023-01-09T08:44:18.658Z,99411.84
2023-01-09T08:47:04.817Z,99420.41
2023-01-09T08:49:46.332Z,99424.06
2023-01-09T08:52:22.758Z,99409.09
2023-01-09T08:54:56.065Z,99418.19
2023-01-09T08:57:52.582Z,99408.38
2023-01-09T09:00:32.400Z,99412.47
2023-01-09T09:03:26.233Z,99407.16
2023-01-09T09:06:14.017Z,99414.25
2023-01-09T09:11:48.028Z,99415.03
2023-01-09T09:20:21.782Z,99421.78
2023-01-09T09:22:55.389Z,99435.16
2023-01-09T09:25:34.348Z,99421.78
2023-01-09T09:31:11.701Z,99428.94
2023-01-09T09:33:51.405Z,99437.41
2023-01-09T09:36:41.076Z,99431.22
2023-01-09T09:39:09.651Z,99435.25
2023-01-09T09:42:13.691Z,99441.22
2023-01-09T09:48:22.741Z,99429.97
2023-01-09T09:51:01.667Z,99425.91
2023-01-09T09:53:47.207Z,99434.34
2023-01-09T09:56:40.740Z,99438.34
2023-01-09T09:59:16.680Z,99431.81
2023-01-09T10:01:47.878Z,99445.97
2023-01-09T10:04:17.739Z,99437.56
2023-01-09T10:06:46.165Z,99446.63
2023-01-09T10:09:32.265Z,99439.56
2023-01-09T10:12:30.524Z,99436.69
2023-01-09T10:14:59.092Z,99446.22
2023-01-09T10:17:53.207Z,99445.72
2023-01-09T10:20:58.329Z,99440.88
2023-01-09T10:23:48.006Z,99444.03
2023-01-09T10:26:37.224Z,99445.00
2023-01-09T10:29:07.562Z,99449.25
2023-01-09T10:31:41.630Z,99444.97
2023-01-09T10:34:30.503Z,99452.75
2023-01-09T10:37:02.950Z,99455.78
2023-01-09T10:40:24.970Z,99445.66
2023-01-09T10:43:31.941Z,99453.28
2023-01-09T10:46:03.615Z,99454.97
2023-01-09T10:49:04.648Z,99466.66
2023-01-09T10:51:54.774Z,99458.09
2023-01-09T10:54:28.465Z,99456.91
2023-01-09T10:57:05.060Z,99456.09
2023-01-09T10:59:34.841Z,99464.50
2023-01-09T11:02:07.669Z,99463.16
2023-01-09T11:04:51.446Z,99457.28
2023-01-09T11:07:45.700Z,99451.41
2023-01-09T11:10:15.997Z,99463.59
2023-01-09T11:12:48.763Z,99454.06
2023-01-09T11:15:36.179Z,99459.97
2023-01-09T11:19:13.634Z,99455.72
2023-01-09T11:21:50.639Z,99457.94
2023-01-09T11:24:18.002Z,99463.94
2023-01-09T11:26:56.739Z,99461.91
2023-01-09T11:29:47.031Z,99454.91
2023-01-09T11:32:32.470Z,99454.38
2023-01-09T11:35:08.290Z,99446.63
2023-01-09T11:37:38.770Z,99451.19
2023-01-09T11:40:06.496Z,99460.25
2023-01-09T11:42:52.854Z,99458.09
2023-01-09T11:45:30.364Z,99446.22
2023-01-09T11:47:58.381Z,99452.03
2023-01-09T11:50:43.192Z,99451.19
2023-01-09T11:53:18.937Z,99449.31
2023-01-09T11:55:56.865Z,99453.09
2023-01-09T11:58:26.687Z,99454.13
2023-01-09T12:01:30.251Z,99451.66
2023-01-09T12:04:02.482Z,99458.97
2023-01-09T12:06:37.146Z,99456.56
2023-01-09T12:09:07.926Z,99455.72
2023-01-09T12:11:46.859Z,99454.94
2023-01-09T12:15:02.199Z,99455.31
2023-01-09T12:17:48.862Z,99459.16
2023-01-09T12:20:20.764Z,99452.50
2023-01-09T12:22:51.746Z,99458.16
2023-01-09T12:25:32.783Z,99452.50
2023-01-09T12:28:19.070Z,99452.50
2023-01-09T12:33:49.455Z,99443.47
2023-01-09T12:36:47.438Z,99443.19
2023-01-09T12:39:35.530Z,99445.84
2023-01-09T12:42:21.307Z,99444.34
2023-01-09T12:45:11.049Z,99440.56
2023-01-09T12:47:58.637Z,99459.63
2023-01-09T12:50:44.113Z,99458.63
2023-01-09T12:53:25.778Z,99450.44
2023-01-09T12:56:17.460Z,99456.06
2023-01-09T12:59:21.271Z,99454.44
2023-01-09T13:02:17.921Z,99466.19
2023-01-09T13:05:27.924Z,99455.50
2023-01-09T13:08:10.044Z,99461.41
2023-01-09T13:10:49.896Z,99464.03
2023-01-09T13:16:51.723Z,99461.72
2023-01-09T13:19:40.351Z,99463.41
2023-01-09T13:22:15.790Z,99469.03
2023-01-09T13:25:06.275Z,99468.31
2023-01-09T13:27:40.405Z,99469.63
2023-01-09T13:30:38.289Z,99462.38
2023-01-09T13:33:19.643Z,99467.19
2023-01-09T13:35:50.263Z,99476.19
2023-01-09T13:38:29.039Z,99470.16
2023-01-09T13:41:34.226Z,99474.44
2023-01-09T13:44:29.381Z,99470.81
2023-01-09T13:46:58.297Z,99465.84
2023-01-09T13:49:34.336Z,99473.88
2023-01-09T13:52:13.753Z,99476.59
2023-01-09T13:54:49.932Z,99483.53
2023-01-09T13:57:36.669Z,99493.78
2023-01-09T14:00:17.911Z,99489.75
2023-01-09T14:03:04.927Z,99480.78
2023-01-09T14:05:34.128Z,99495.28
2023-01-09T14:08:07.509Z,99496.44
2023-01-09T14:10:46.881Z,99500.94
2023-01-09T14:13:56.133Z,99507.72
2023-01-09T14:16:34.782Z,99507.56
2023-01-09T14:19:36.986Z,99511.41
2023-01-09T14:22:08.591Z,99523.56
2023-01-09T14:24:39.967Z,99528.97
2023-01-09T14:27:27.628Z,99528.22
2023-01-09T14:30:15.822Z,99533.03
2023-01-09T14:33:10.957Z,99544.81
2023-01-09T14:35:58.154Z,99541.00
2023-01-09T14:38:31.498Z,99544.25
2023-01-09T14:41:14.734Z,99548.53
2023-01-09T14:43:46.343Z,99553.38
2023-01-09T14:46:25.955Z,99554.34
2023-01-09T14:48:59.508Z,99564.00
2023-01-09T14:51:35.212Z,99565.34
2023-01-09T14:54:07.180Z,99570.97
2023-01-09T14:56:43.373Z,99577.97
2023-01-09T14:59:12.750Z,99579.59
2023-01-09T15:01:48.703Z,99583.91
2023-01-09T15:04:31.062Z,99592.69
2023-01-09T15:07:12.977Z,99605.03
2023-01-09T15:12:50.876Z,99609.09
2023-01-09T15:15:35.472Z,99604.28
2023-01-09T15:18:06.195Z,99609.66
2023-01-09T15:20:43.834Z,99609.97
2023-01-09T15:23:23.169Z,99616.41
2023-01-09T15:25:50.829Z,99612.13
2023-01-09T15:28:31.055Z,99619.88
2023-01-09T15:31:17.022Z,99629.53
2023-01-09T15:34:07.089Z,99623.66
2023-01-09T15:36:42.381Z,99633.28
2023-01-09T15:39:27.364Z,99647.72
2023-01-09T15:45:05.982Z,99642.63
2023-01-09T15:47:36.851Z,99650.13
2023-01-09T15:50:50.289Z,99644.25
2023-01-09T15:53:38.432Z,99650.91
2023-01-09T15:56:25.468Z,99653.06
2023-01-09T15:59:06.955Z,99660.56
2023-01-09T16:01:37.487Z,99661.09
2023-01-09T16:04:06.397Z,99661.31
2023-01-09T16:06:45.786Z,99666.91
2023-01-09T16:09:17.727Z,99663.66
2023-01-09T16:11:55.881Z,99673.00
2023-01-09T16:14:35.373Z,99674.84
2023-01-09T16:17:08.815Z,99687.63
2023-01-09T16:19:49.332Z,99688.13
2023-01-09T16:22:26.952Z,99694.06
2023-01-09T16:25:02.881Z,99698.59
2023-01-09T16:27:45.694Z,99702.63
2023-01-09T16:33:28.381Z,99719.19
2023-01-09T16:36:06.321Z,99726.16
2023-01-09T16:38:49.226Z,99717.63
2023-01-09T16:41:41.363Z,99717.88
2023-01-09T16:44:30.426Z,99715.97
2023-01-09T16:47:07.226Z,99729.06
2023-01-09T16:49:43.245Z,99722.44
2023-01-09T16:52:21.473Z,99733.66
2023-01-09T16:55:05.324Z,99740.06
2023-01-09T16:57:35.982Z,99746.19
2023-01-09T17:00:13.865Z,99753.97
2023-01-09T17:03:08.660Z,99753.41
2023-01-09T17:05:44.583Z,99761.13
2023-01-09T17:08:25.208Z,99775.31
2023-01-09T17:10:54.430Z,99780.69
2023-01-09T17:13:23.210Z,99783.91
2023-01-09T17:15:50.345Z,99785.22
2023-01-09T17:18:23.175Z,99789.22
2023-01-09T17:20:51.259Z,99796.09
2023-01-09T17:23:18.100Z,99792.03
2023-01-09T17:26:03.292Z,99799.72
2023-01-09T17:28:32.712Z,99811.44
2023-01-09T17:31:04.185Z,99809.84
2023-01-09T17:33:30.929Z,99813.00
2023-01-09T17:35:57.646Z,99816.22
2023-01-09T17:38:24.238Z,99828.00
2023-01-09T17:40:50.933Z,99826.91
2023-01-09T17:43:19.090Z,99847.19
2023-01-09T17:45:45.866Z,99850.09
2023-01-09T17:48:20.209Z,99854.88
2023-01-09T17:50:47.881Z,99859.66
2023-01-09T17:53:14.795Z,99870.31
2023-01-09T17:55:41.931Z,99867.41
2023-01-09T17:58:19.107Z,99875.44
2023-01-09T18:00:47.918Z,99875.75
2023-01-09T18:03:14.897Z,99886.19
2023-01-09T18:05:41.537Z,99888.63
2023-01-09T18:08:09.939Z,99890.50
2023-01-09T18:10:37.611Z,99896.84
2023-01-09T18:13:04.477Z,99902.75
2023-01-09T18:15:31.473Z,99918.47
2023-01-09T18:17:58.581Z,99924.69
2023-01-09T18:20:26.112Z,99919.88
2023-01-09T18:22:52.853Z,99927.38
2023-01-09T18:25:19.550Z,99930.59
2023-01-09T18:27:46.586Z,99935.44
2023-01-09T18:30:13.366Z,99941.28
2023-01-09T18:32:40.277Z,99943.94
2023-01-09T18:35:08.781Z,99955.66
2023-01-09T18:37:35.997Z,99966.31
2023-01-09T18:40:02.654Z,99974.84
2023-01-09T18:42:29.496Z,99967.63
2023-01-09T18:44:56.363Z,99979.91
2023-01-09T18:47:22.923Z,99980.72
2023-01-09T18:49:49.565Z,99985.22
2023-01-09T18:52:16.204Z,99989.19
2023-01-09T18:54:43.369Z,99988.56
2023-01-09T18:57:10.621Z,100001.88
2023-01-09T18:59:37.395Z,100001.25
2023-01-09T19:02:03.980Z,100003.66
2023-01-09T19:04:34.156Z,100012.56
2023-01-09T19:07:00.870Z,100023.34
2023-01-09T19:09:27.749Z,100019.66
2023-01-09T19:11:54.335Z,100025.84
2023-01-09T19:14:20.876Z,100022.91
2023-01-09T19:16:47.736Z,100032.00
2023-01-09T19:19:14.304Z,100035.19
2023-01-09T19:21:40.972Z,100038.69
2023-01-09T19:24:07.678Z,100039.50
2023-01-09T19:26:34.251Z,100036.81
2023-01-09T19:29:00.937Z,100045.34
2023-01-09T19:31:28.981Z,100043.38
2023-01-09T19:33:56.580Z,100055.38
2023-01-09T19:36:24.310Z,100047.63
2023-01-09T19:38:55.393Z,100050.03
2023-01-09T19:41:22.160Z,100053.81
2023-01-09T19:43:48.875Z,100051.69
2023-01-09T19:46:17.293Z,100059.72
2023-01-09T19:48:44.778Z,100066.72
2023-01-09T19:51:12.426Z,100073.41
2023-01-09T19:53:39.220Z,100078.22
2023-01-09T19:56:16.605Z,100091.09
2023-01-09T19:58:47.531Z,100088.22
2023-01-09T20:01:15.153Z,100094.69
2023-01-09T20:03:45.396Z,100103.25
2023-01-09T20:06:14.433Z,100099.50
2023-01-09T20:08:41.851Z,100109.69
2023-01-09T20:11:08.872Z,100102.72
2023-01-09T20:13:35.737Z,100103.81
2023-01-09T20:16:03.097Z,100104.28
2023-01-09T20:18:33.242Z,100106.97
2023-01-09T20:21:00.041Z,100108.59
2023-01-09T20:23:32.346Z,100106.47
2023-01-09T20:26:00.005Z,100119.88
2023-01-09T20:28:27.384Z,100122.06
2023-01-09T20:30:54.287Z,100121.53
2023-01-09T20:33:21.136Z,100133.31
2023-01-09T20:35:49.990Z,100126.88
2023-01-09T20:38:17.149Z,100129.53
2023-01-09T20:40:44.081Z,100134.34
2023-01-09T20:43:12.583Z,100138.81
2023-01-09T20:45:39.956Z,100141.25
2023-01-09T20:48:14.005Z,100146.34
2023-01-09T20:50:40.799Z,100146.09
2023-01-09T20:53:08.007Z,100147.69
2023-01-09T20:55:34.571Z,100151.72
2023-01-09T20:58:01.311Z,100161.91
2023-01-09T21:00:31.909Z,100157.13
2023-01-09T21:02:59.275Z,100164.91
2023-01-09T21:05:26.022Z,100168.66
2023-01-09T21:07:52.500Z,100164.41
2023-01-09T21:10:19.283Z,100173.56
2023-01-09T21:12:45.886Z,100176.78
2023-01-09T21:15:16.507Z,100174.66
2023-01-09T21:17:43.621Z,100170.88
2023-01-09T21:20:11.933Z,100182.88
2023-01-09T21:22:39.277Z,100183.66
2023-01-09T21:25:06.503Z,100186.84
2023-01-09T21:27:38.209Z,100189.44
2023-01-09T21:30:05.567Z,100203.31
2023-01-09T21:32:34.976Z,100208.09
2023-01-09T21:35:05.838Z,100198.44
2023-01-09T21:37:34.865Z,100197.84
2023-01-09T21:40:01.693Z,100207.97
2023-01-09T21:42:46.922Z,100213.78
2023-01-09T21:45:33.204Z,100215.44
2023-01-09T21:48:02.407Z,100219.22
2023-01-09T21:50:29.165Z,100220.06
2023-01-09T21:52:55.837Z,100215.03
2023-01-09T21:55:22.363Z,100227.59
2023-01-09T21:57:49.008Z,100225.13
2023-01-09T22:00:16.065Z,100228.69
2023-01-09T22:02:42.749Z,100239.72
2023-01-09T22:05:09.548Z,100244.81
2023-01-09T22:07:36.126Z,100254.94
2023-01-09T22:10:03.235Z,100254.41
2023-01-09T22:12:29.976Z,100263.50
2023-01-09T22:14:59.322Z,100263.97
2023-01-09T22:17:25.946Z,100263.75
2023-01-09T22:19:52.567Z,100270.41
2023-01-09T22:22:19.148Z,100282.44
2023-01-09T22:24:45.676Z,100286.97
2023-01-09T22:27:12.164Z,100288.59
2023-01-09T22:29:38.742Z,100288.59
2023-01-09T22:32:05.390Z,100292.31
2023-01-09T22:34:32.113Z,100297.66
2023-01-09T22:36:58.640Z,100296.53
2023-01-09T22:39:25.590Z,100298.66
2023-01-09T22:41:54.485Z,100308.81
2023-01-09T22:44:20.995Z,100313.03
2023-01-09T22:46:47.700Z,100320.50
2023-01-09T22:49:14.356Z,100318.66
2023-01-09T22:51:41.015Z,100318.31
2023-01-09T22:54:07.484Z,100318.75
2023-01-09T22:56:34.046Z,100318.91
2023-01-09T22:59:01.073Z,100328.22
2023-01-09T23:01:27.681Z,100323.94
2023-01-09T23:03:54.413Z,100328.47
2023-01-09T23:06:21.802Z,100336.72
2023-01-09T23:08:51.872Z,100340.13
2023-01-09T23:11:39.722Z,100344.09
2023-01-09T23:14:06.384Z,100352.09
2023-01-09T23:16:32.953Z,100355.81
2023-01-09T23:18:59.513Z,100362.28
2023-01-09T23:21:26.164Z,100361.25
2023-01-09T23:23:52.673Z,100374.59
2023-01-09T23:26:19.080Z,100380.50
2023-01-09T23:28:45.524Z,100381.13
2023-01-09T23:31:11.995Z,100388.66
2023-01-09T23:33:38.695Z,100386.47
2023-01-09T23:36:05.264Z,100387.59
2023-01-09T23:38:31.830Z,100386.56
2023-01-09T23:40:58.435Z,100394.47
2023-01-09T23:43:25.035Z,100394.47
2023-01-09T23:45:52.042Z,100400.47
2023-01-09T23:48:19.164Z,100411.97
2023-01-09T23:50:50.288Z,100412.75
2023-01-09T23:53:17.847Z,100414.88
2023-01-09T23:55:44.677Z,100425.56
2023-01-09T23:58:11.541Z,100425.06
